sensor_id;sensor_type;location;lat;lon;timestamp;P1;P2;P0
78678;PMS5003;67994;59.334;13.528;2023-05-07T00:00:00;2.0;2.0;
78678;PMS5003;67994;59.334;13.528;2023-05-07T00:01:01;2.0;2.0;
78678;PMS5003;67994;59.334;13.528;2023-05-07T00:02:00;2.0;2.0;
78678;PMS5003;67994;59.334;13.528;2023-05-07T00:03:00;2.0;2.0;
78678;PMS5003;67994;59.334;13.528;2023-05-07T00:04:00;4.6;4.0;
78678;PMS5003;67994;59.334;13.528;2023-05-07T00:05:00;4.6;4.0;
78678;PMS5003;67994;59.334;13.528;2023-05-07T00:06:00;4.6;4.0;
78678;PMS5003;67994;59.334;13.528;2023-05-07T00:07:00;4.6;4.0;
78678;PMS5003;67994;59.334;13.528;2023-05-07T00:08:00;4.6;4.0;
78678;PMS5003;67994;59.334;13.528;2023-05-07T00:09:00;4.7;4.7;
78678;PMS5003;67994;59.334;13.528;2023-05-07T00:10:00;4.7;4.7;
78678;PMS5003;67994;59.334;13.528;2023-05-07T00:11:00;4.7;4.7;
78678;PMS5003;67994;59.334;13.528;2023-05-07T00:12:00;4.7;4.7;
78678;PMS5003;67994;59.334;13.528;2023-05-07T00:13:00;4.7;4.7;
78678;PMS5003;67994;59.334;13.528;2023-05-07T00:14:00;2.0;2.0;
78678;PMS5003;67994;59.334;13.528;2023-05-07T00:15:01;2.0;2.0;
78678;PMS5003;67994;59.334;13.528;2023-05-07T00:16:00;2.0;2.0;
78678;PMS5003;67994;59.334;13.528;2023-05-07T00:17:00;2.0;2.0;
78678;PMS5003;67994;59.334;13.528;2023-05-07T00:18:00;2.0;2.0;
78678;PMS5003;67994;59.334;13.528;2023-05-07T00:19:00;7.0;4.4;
78678;PMS5003;67994;59.334;13.528;2023-05-07T00:20:00;7.0;4.4;
78678;PMS5003;67994;59.334;13.528;2023-05-07T00:21:00;7.0;4.4;
78678;PMS5003;67994;59.334;13.528;2023-05-07T00:22:00;7.0;4.4;
78678;PMS5003;67994;59.334;13.528;2023-05-07T00:23:00;7.0;4.4;
78678;PMS5003;67994;59.334;13.528;2023-05-07T00:24:00;2.4;2.4;
78678;PMS5003;67994;59.334;13.528;2023-05-07T00:25:00;2.4;2.4;
78678;PMS5003;67994;59.334;13.528;2023-05-07T00:26:00;2.4;2.4;
78678;PMS5003;67994;59.334;13.528;2023-05-07T00:27:00;2.4;2.4;
78678;PMS5003;67994;59.334;13.528;2023-05-07T00:28:00;2.4;2.4;
78678;PMS5003;67994;59.334;13.528;2023-05-07T00:29:00;4.0;2.0;
78678;PMS5003;67994;59.334;13.528;2023-05-07T00:30:00;4.0;2.0;
78678;PMS5003;67994;59.334;13.528;2023-05-07T00:31:00;4.0;2.0;
78678;PMS5003;67994;59.334;13.528;2023-05-07T00:32:00;4.0;2.0;
78678;PMS5003;67994;59.334;13.528;2023-05-07T00:33:00;4.0;2.0;
78678;PMS5003;67994;59.334;13.528;2023-05-07T00:34:00;3.7;3.7;
78678;PMS5003;67994;59.334;13.528;2023-05-07T00:35:00;3.7;3.7;
78678;PMS5003;67994;59.334;13.528;2023-05-07T00:36:00;3.7;3.7;
78678;PMS5003;67994;59.334;13.528;2023-05-07T00:37:00;3.7;3.7;
78678;PMS5003;67994;59.334;13.528;2023-05-07T00:38:00;3.7;3.7;
78678;PMS5003;67994;59.334;13.528;2023-05-07T00:39:00;2.7;2.7;
78678;PMS5003;67994;59.334;13.528;2023-05-07T00:40:00;2.7;2.7;
78678;PMS5003;67994;59.334;13.528;2023-05-07T00:41:00;2.7;2.7;
78678;PMS5003;67994;59.334;13.528;2023-05-07T00:42:00;2.7;2.7;
78678;PMS5003;67994;59.334;13.528;2023-05-07T00:43:00;2.7;2.7;
78678;PMS5003;67994;59.334;13.528;2023-05-07T00:44:00;3.2;3.2;
78678;PMS5003;67994;59.334;13.528;2023-05-07T00:45:00;3.2;3.2;
78678;PMS5003;67994;59.334;13.528;2023-05-07T00:46:00;3.2;3.2;
78678;PMS5003;67994;59.334;13.528;2023-05-07T00:47:01;3.2;3.2;
78678;PMS5003;67994;59.334;13.528;2023-05-07T00:48:00;3.2;3.2;
78678;PMS5003;67994;59.334;13.528;2023-05-07T00:49:00;5.9;3.7;
78678;PMS5003;67994;59.334;13.528;2023-05-07T00:50:00;5.9;3.7;
78678;PMS5003;67994;59.334;13.528;2023-05-07T00:51:00;5.9;3.7;
78678;PMS5003;67994;59.334;13.528;2023-05-07T00:52:00;5.9;3.7;
78678;PMS5003;67994;59.334;13.528;2023-05-07T00:53:00;5.9;3.7;
78678;PMS5003;67994;59.334;13.528;2023-05-07T00:54:00;8.1;3.5;
78678;PMS5003;67994;59.334;13.528;2023-05-07T00:55:01;8.1;3.5;
78678;PMS5003;67994;59.334;13.528;2023-05-07T00:56:00;8.1;3.5;
78678;PMS5003;67994;59.334;13.528;2023-05-07T00:57:01;8.1;3.5;
78678;PMS5003;67994;59.334;13.528;2023-05-07T00:58:00;8.1;3.5;
78678;PMS5003;67994;59.334;13.528;2023-05-07T00:59:00;2.4;2.4;
78678;PMS5003;67994;59.334;13.528;2023-05-07T01:00:00;2.4;2.4;
78678;PMS5003;67994;59.334;13.528;2023-05-07T01:01:00;2.4;2.4;
78678;PMS5003;67994;59.334;13.528;2023-05-07T01:02:00;2.4;2.4;
78678;PMS5003;67994;59.334;13.528;2023-05-07T01:03:00;2.4;2.4;
78678;PMS5003;67994;59.334;13.528;2023-05-07T01:04:00;4.6;4.6;
78678;PMS5003;67994;59.334;13.528;2023-05-07T01:05:00;4.6;4.6;
78678;PMS5003;67994;59.334;13.528;2023-05-07T01:06:00;4.6;4.6;
78678;PMS5003;67994;59.334;13.528;2023-05-07T01:07:00;4.6;4.6;
78678;PMS5003;67994;59.334;13.528;2023-05-07T01:08:00;4.6;4.6;
78678;PMS5003;67994;59.334;13.528;2023-05-07T01:09:00;4.2;3.0;
78678;PMS5003;67994;59.334;13.528;2023-05-07T01:10:00;4.2;3.0;
78678;PMS5003;67994;59.334;13.528;2023-05-07T01:11:00;4.2;3.0;
78678;PMS5003;67994;59.334;13.528;2023-05-07T01:12:00;4.2;3.0;
78678;PMS5003;67994;59.334;13.528;2023-05-07T01:13:00;4.2;3.0;
78678;PMS5003;67994;59.334;13.528;2023-05-07T01:14:00;2.6;2.6;
78678;PMS5003;67994;59.334;13.528;2023-05-07T01:15:00;2.6;2.6;
78678;PMS5003;67994;59.334;13.528;2023-05-07T01:16:00;2.6;2.6;
78678;PMS5003;67994;59.334;13.528;2023-05-07T01:17:00;2.6;2.6;
78678;PMS5003;67994;59.334;13.528;2023-05-07T01:18:00;2.6;2.6;
78678;PMS5003;67994;59.334;13.528;2023-05-07T01:19:00;2.5;1.0;
78678;PMS5003;67994;59.334;13.528;2023-05-07T01:20:00;2.5;1.0;
78678;PMS5003;67994;59.334;13.528;2023-05-07T01:21:00;2.5;1.0;
78678;PMS5003;67994;59.334;13.528;2023-05-07T01:22:01;2.5;1.0;
78678;PMS5003;67994;59.334;13.528;2023-05-07T01:23:00;2.5;1.0;
78678;PMS5003;67994;59.334;13.528;2023-05-07T01:24:00;1.3;1.2;
78678;PMS5003;67994;59.334;13.528;2023-05-07T01:25:00;1.3;1.2;
78678;PMS5003;67994;59.334;13.528;2023-05-07T01:26:00;1.3;1.2;
78678;PMS5003;67994;59.334;13.528;2023-05-07T01:27:00;1.3;1.2;
78678;PMS5003;67994;59.334;13.528;2023-05-07T01:28:00;1.3;1.2;
78678;PMS5003;67994;59.334;13.528;2023-05-07T01:29:00;2.7;2.7;
78678;PMS5003;67994;59.334;13.528;2023-05-07T01:30:00;2.7;2.7;
78678;PMS5003;67994;59.334;13.528;2023-05-07T01:31:01;2.7;2.7;
78678;PMS5003;67994;59.334;13.528;2023-05-07T01:32:00;2.7;2.7;
78678;PMS5003;67994;59.334;13.528;2023-05-07T01:33:01;2.7;2.7;
78678;PMS5003;67994;59.334;13.528;2023-05-07T01:34:01;7.0;4.0;
78678;PMS5003;67994;59.334;13.528;2023-05-07T01:35:00;7.0;4.0;
78678;PMS5003;67994;59.334;13.528;2023-05-07T01:36:00;7.0;4.0;
78678;PMS5003;67994;59.334;13.528;2023-05-07T01:37:00;7.0;4.0;
78678;PMS5003;67994;59.334;13.528;2023-05-07T01:38:00;7.0;4.0;
78678;PMS5003;67994;59.334;13.528;2023-05-07T01:39:00;2.7;2.7;
78678;PMS5003;67994;59.334;13.528;2023-05-07T01:40:01;2.7;2.7;
78678;PMS5003;67994;59.334;13.528;2023-05-07T01:41:00;2.7;2.7;
78678;PMS5003;67994;59.334;13.528;2023-05-07T01:42:00;2.7;2.7;
78678;PMS5003;67994;59.334;13.528;2023-05-07T01:43:00;2.7;2.7;
78678;PMS5003;67994;59.334;13.528;2023-05-07T01:44:00;6.3;3.7;
78678;PMS5003;67994;59.334;13.528;2023-05-07T01:45:00;6.3;3.7;
78678;PMS5003;67994;59.334;13.528;2023-05-07T01:46:00;6.3;3.7;
78678;PMS5003;67994;59.334;13.528;2023-05-07T01:47:00;6.3;3.7;
78678;PMS5003;67994;59.334;13.528;2023-05-07T01:48:01;6.3;3.7;
78678;PMS5003;67994;59.334;13.528;2023-05-07T01:49:00;4.6;3.7;
78678;PMS5003;67994;59.334;13.528;2023-05-07T01:50:00;4.6;3.7;
78678;PMS5003;67994;59.334;13.528;2023-05-07T01:51:00;4.6;3.7;
78678;PMS5003;67994;59.334;13.528;2023-05-07T01:52:00;4.6;3.7;
78678;PMS5003;67994;59.334;13.528;2023-05-07T01:53:00;4.6;3.7;
78678;PMS5003;67994;59.334;13.528;2023-05-07T01:54:00;3.0;3.0;
78678;PMS5003;67994;59.334;13.528;2023-05-07T01:55:00;3.0;3.0;
78678;PMS5003;67994;59.334;13.528;2023-05-07T01:56:00;3.0;3.0;
78678;PMS5003;67994;59.334;13.528;2023-05-07T01:57:00;3.0;3.0;
78678;PMS5003;67994;59.334;13.528;2023-05-07T01:58:00;3.0;3.0;
78678;PMS5003;67994;59.334;13.528;2023-05-07T01:59:00;7.0;5.4;
78678;PMS5003;67994;59.334;13.528;2023-05-07T02:00:00;7.0;5.4;
78678;PMS5003;67994;59.334;13.528;2023-05-07T02:01:00;7.0;5.4;
78678;PMS5003;67994;59.334;13.528;2023-05-07T02:02:00;7.0;5.4;
78678;PMS5003;67994;59.334;13.528;2023-05-07T02:03:00;7.0;5.4;
78678;PMS5003;67994;59.334;13.528;2023-05-07T02:04:00;5.8;3.0;
78678;PMS5003;67994;59.334;13.528;2023-05-07T02:05:00;5.8;3.0;
78678;PMS5003;67994;59.334;13.528;2023-05-07T02:06:00;5.8;3.0;
78678;PMS5003;67994;59.334;13.528;2023-05-07T02:07:00;5.8;3.0;
78678;PMS5003;67994;59.334;13.528;2023-05-07T02:08:00;5.8;3.0;
78678;PMS5003;67994;59.334;13.528;2023-05-07T02:09:00;6.0;3.0;
78678;PMS5003;67994;59.334;13.528;2023-05-07T02:10:00;6.0;3.0;
78678;PMS5003;67994;59.334;13.528;2023-05-07T02:11:00;6.0;3.0;
78678;PMS5003;67994;59.334;13.528;2023-05-07T02:12:00;6.0;3.0;
78678;PMS5003;67994;59.334;13.528;2023-05-07T02:13:00;6.0;3.0;
78678;PMS5003;67994;59.334;13.528;2023-05-07T02:14:00;6.7;5.7;
78678;PMS5003;67994;59.334;13.528;2023-05-07T02:15:00;6.7;5.7;
78678;PMS5003;67994;59.334;13.528;2023-05-07T02:16:00;6.7;5.7;
78678;PMS5003;67994;59.334;13.528;2023-05-07T02:17:00;6.7;5.7;
78678;PMS5003;67994;59.334;13.528;2023-05-07T02:18:01;6.7;5.7;
78678;PMS5003;67994;59.334;13.528;2023-05-07T02:19:00;3.7;3.6;
78678;PMS5003;67994;59.334;13.528;2023-05-07T02:20:00;3.7;3.6;
78678;PMS5003;67994;59.334;13.528;2023-05-07T02:21:00;3.7;3.6;
78678;PMS5003;67994;59.334;13.528;2023-05-07T02:22:00;3.7;3.6;
78678;PMS5003;67994;59.334;13.528;2023-05-07T02:23:00;3.7;3.6;
78678;PMS5003;67994;59.334;13.528;2023-05-07T02:24:00;4.8;4.8;
78678;PMS5003;67994;59.334;13.528;2023-05-07T02:25:00;4.8;4.8;
78678;PMS5003;67994;59.334;13.528;2023-05-07T02:26:00;4.8;4.8;
78678;PMS5003;67994;59.334;13.528;2023-05-07T02:27:00;4.8;4.8;
78678;PMS5003;67994;59.334;13.528;2023-05-07T02:28:00;4.8;4.8;
78678;PMS5003;67994;59.334;13.528;2023-05-07T02:29:00;4.6;3.0;
78678;PMS5003;67994;59.334;13.528;2023-05-07T02:30:00;4.6;3.0;
78678;PMS5003;67994;59.334;13.528;2023-05-07T02:31:02;4.6;3.0;
78678;PMS5003;67994;59.334;13.528;2023-05-07T02:32:00;4.6;3.0;
78678;PMS5003;67994;59.334;13.528;2023-05-07T02:33:00;4.6;3.0;
78678;PMS5003;67994;59.334;13.528;2023-05-07T02:34:00;4.6;4.6;
78678;PMS5003;67994;59.334;13.528;2023-05-07T02:35:00;4.6;4.6;
78678;PMS5003;67994;59.334;13.528;2023-05-07T02:36:05;4.6;4.6;
78678;PMS5003;67994;59.334;13.528;2023-05-07T02:37:00;4.6;4.6;
78678;PMS5003;67994;59.334;13.528;2023-05-07T02:38:00;4.6;4.6;
78678;PMS5003;67994;59.334;13.528;2023-05-07T02:39:00;5.4;4.0;
78678;PMS5003;67994;59.334;13.528;2023-05-07T02:40:00;5.4;4.0;
78678;PMS5003;67994;59.334;13.528;2023-05-07T02:41:00;5.4;4.0;
78678;PMS5003;67994;59.334;13.528;2023-05-07T02:42:00;5.4;4.0;
78678;PMS5003;67994;59.334;13.528;2023-05-07T02:43:00;5.4;4.0;
78678;PMS5003;67994;59.334;13.528;2023-05-07T02:44:00;4.2;4.0;
78678;PMS5003;67994;59.334;13.528;2023-05-07T02:45:00;4.2;4.0;
78678;PMS5003;67994;59.334;13.528;2023-05-07T02:46:01;4.2;4.0;
78678;PMS5003;67994;59.334;13.528;2023-05-07T02:47:00;4.2;4.0;
78678;PMS5003;67994;59.334;13.528;2023-05-07T02:48:00;4.2;4.0;
78678;PMS5003;67994;59.334;13.528;2023-05-07T02:49:00;3.9;3.9;
78678;PMS5003;67994;59.334;13.528;2023-05-07T02:50:00;3.9;3.9;
78678;PMS5003;67994;59.334;13.528;2023-05-07T02:51:00;3.9;3.9;
78678;PMS5003;67994;59.334;13.528;2023-05-07T02:52:00;3.9;3.9;
78678;PMS5003;67994;59.334;13.528;2023-05-07T02:53:00;3.9;3.9;
78678;PMS5003;67994;59.334;13.528;2023-05-07T02:54:00;5.7;3.6;
78678;PMS5003;67994;59.334;13.528;2023-05-07T02:55:00;5.7;3.6;
78678;PMS5003;67994;59.334;13.528;2023-05-07T02:56:00;5.7;3.6;
78678;PMS5003;67994;59.334;13.528;2023-05-07T02:57:00;5.7;3.6;
78678;PMS5003;67994;59.334;13.528;2023-05-07T02:58:00;5.7;3.6;
78678;PMS5003;67994;59.334;13.528;2023-05-07T02:59:00;4.6;3.0;
78678;PMS5003;67994;59.334;13.528;2023-05-07T03:00:06;4.6;3.0;
78678;PMS5003;67994;59.334;13.528;2023-05-07T03:01:00;4.6;3.0;
78678;PMS5003;67994;59.334;13.528;2023-05-07T03:02:00;4.6;3.0;
78678;PMS5003;67994;59.334;13.528;2023-05-07T03:03:00;4.6;3.0;
78678;PMS5003;67994;59.334;13.528;2023-05-07T03:04:00;1.0;1.0;
78678;PMS5003;67994;59.334;13.528;2023-05-07T03:05:00;1.0;1.0;
78678;PMS5003;67994;59.334;13.528;2023-05-07T03:06:00;1.0;1.0;
78678;PMS5003;67994;59.334;13.528;2023-05-07T03:07:00;1.0;1.0;
78678;PMS5003;67994;59.334;13.528;2023-05-07T03:08:00;1.0;1.0;
78678;PMS5003;67994;59.334;13.528;2023-05-07T03:09:00;3.0;1.2;
78678;PMS5003;67994;59.334;13.528;2023-05-07T03:10:00;3.0;1.2;
78678;PMS5003;67994;59.334;13.528;2023-05-07T03:11:00;3.0;1.2;
78678;PMS5003;67994;59.334;13.528;2023-05-07T03:12:00;3.0;1.2;
78678;PMS5003;67994;59.334;13.528;2023-05-07T03:13:00;3.0;1.2;
78678;PMS5003;67994;59.334;13.528;2023-05-07T03:14:00;7.6;5.4;
78678;PMS5003;67994;59.334;13.528;2023-05-07T03:15:00;7.6;5.4;
78678;PMS5003;67994;59.334;13.528;2023-05-07T03:16:00;7.6;5.4;
78678;PMS5003;67994;59.334;13.528;2023-05-07T03:17:00;7.6;5.4;
78678;PMS5003;67994;59.334;13.528;2023-05-07T03:18:00;7.6;5.4;
78678;PMS5003;67994;59.334;13.528;2023-05-07T03:19:00;2.2;2.2;
78678;PMS5003;67994;59.334;13.528;2023-05-07T03:20:00;2.2;2.2;
78678;PMS5003;67994;59.334;13.528;2023-05-07T03:21:00;2.2;2.2;
78678;PMS5003;67994;59.334;13.528;2023-05-07T03:22:00;2.2;2.2;
78678;PMS5003;67994;59.334;13.528;2023-05-07T03:23:00;2.2;2.2;
78678;PMS5003;67994;59.334;13.528;2023-05-07T03:24:00;3.0;3.0;
78678;PMS5003;67994;59.334;13.528;2023-05-07T03:25:00;3.0;3.0;
78678;PMS5003;67994;59.334;13.528;2023-05-07T03:26:00;3.0;3.0;
78678;PMS5003;67994;59.334;13.528;2023-05-07T03:27:00;3.0;3.0;
78678;PMS5003;67994;59.334;13.528;2023-05-07T03:28:00;3.0;3.0;
78678;PMS5003;67994;59.334;13.528;2023-05-07T03:29:00;4.0;3.1;
78678;PMS5003;67994;59.334;13.528;2023-05-07T03:30:00;4.0;3.1;
78678;PMS5003;67994;59.334;13.528;2023-05-07T03:31:00;4.0;3.1;
78678;PMS5003;67994;59.334;13.528;2023-05-07T03:32:00;4.0;3.1;
78678;PMS5003;67994;59.334;13.528;2023-05-07T03:33:00;4.0;3.1;
78678;PMS5003;67994;59.334;13.528;2023-05-07T03:34:00;3.6;3.6;
78678;PMS5003;67994;59.334;13.528;2023-05-07T03:35:00;3.6;3.6;
78678;PMS5003;67994;59.334;13.528;2023-05-07T03:36:00;3.6;3.6;
78678;PMS5003;67994;59.334;13.528;2023-05-07T03:37:00;3.6;3.6;
78678;PMS5003;67994;59.334;13.528;2023-05-07T03:38:00;3.6;3.6;
78678;PMS5003;67994;59.334;13.528;2023-05-07T03:39:00;4.0;2.6;
78678;PMS5003;67994;59.334;13.528;2023-05-07T03:40:00;4.0;2.6;
78678;PMS5003;67994;59.334;13.528;2023-05-07T03:41:00;4.0;2.6;
78678;PMS5003;67994;59.334;13.528;2023-05-07T03:42:00;4.0;2.6;
78678;PMS5003;67994;59.334;13.528;2023-05-07T03:43:00;4.0;2.6;
78678;PMS5003;67994;59.334;13.528;2023-05-07T03:44:00;2.6;1.7;
78678;PMS5003;67994;59.334;13.528;2023-05-07T03:45:00;2.6;1.7;
78678;PMS5003;67994;59.334;13.528;2023-05-07T03:46:00;2.6;1.7;
78678;PMS5003;67994;59.334;13.528;2023-05-07T03:47:00;2.6;1.7;
78678;PMS5003;67994;59.334;13.528;2023-05-07T03:48:00;2.6;1.7;
78678;PMS5003;67994;59.334;13.528;2023-05-07T03:49:00;4.4;4.4;
78678;PMS5003;67994;59.334;13.528;2023-05-07T03:50:00;4.4;4.4;
78678;PMS5003;67994;59.334;13.528;2023-05-07T03:51:00;4.4;4.4;
78678;PMS5003;67994;59.334;13.528;2023-05-07T03:52:00;4.4;4.4;
78678;PMS5003;67994;59.334;13.528;2023-05-07T03:53:00;4.4;4.4;
78678;PMS5003;67994;59.334;13.528;2023-05-07T03:54:00;2.0;2.0;
78678;PMS5003;67994;59.334;13.528;2023-05-07T03:55:00;2.0;2.0;
78678;PMS5003;67994;59.334;13.528;2023-05-07T03:56:00;2.0;2.0;
78678;PMS5003;67994;59.334;13.528;2023-05-07T03:57:00;2.0;2.0;
78678;PMS5003;67994;59.334;13.528;2023-05-07T03:58:00;2.0;2.0;
78678;PMS5003;67994;59.334;13.528;2023-05-07T03:59:00;2.0;2.0;
78678;PMS5003;67994;59.334;13.528;2023-05-07T04:00:00;2.0;2.0;
78678;PMS5003;67994;59.334;13.528;2023-05-07T04:01:00;2.0;2.0;
78678;PMS5003;67994;59.334;13.528;2023-05-07T04:02:00;2.0;2.0;
78678;PMS5003;67994;59.334;13.528;2023-05-07T04:03:00;2.0;2.0;
78678;PMS5003;67994;59.334;13.528;2023-05-07T04:04:00;2.6;2.6;
78678;PMS5003;67994;59.334;13.528;2023-05-07T04:05:00;2.6;2.6;
78678;PMS5003;67994;59.334;13.528;2023-05-07T04:06:00;2.6;2.6;
78678;PMS5003;67994;59.334;13.528;2023-05-07T04:07:00;2.6;2.6;
78678;PMS5003;67994;59.334;13.528;2023-05-07T04:08:01;2.6;2.6;
78678;PMS5003;67994;59.334;13.528;2023-05-07T04:09:00;1.0;1.0;
78678;PMS5003;67994;59.334;13.528;2023-05-07T04:10:00;1.0;1.0;
78678;PMS5003;67994;59.334;13.528;2023-05-07T04:11:00;1.0;1.0;
78678;PMS5003;67994;59.334;13.528;2023-05-07T04:12:00;1.0;1.0;
78678;PMS5003;67994;59.334;13.528;2023-05-07T04:13:00;1.0;1.0;
78678;PMS5003;67994;59.334;13.528;2023-05-07T04:14:00;4.7;4.7;
78678;PMS5003;67994;59.334;13.528;2023-05-07T04:15:00;4.7;4.7;
78678;PMS5003;67994;59.334;13.528;2023-05-07T04:16:01;4.7;4.7;
78678;PMS5003;67994;59.334;13.528;2023-05-07T04:17:00;4.7;4.7;
78678;PMS5003;67994;59.334;13.528;2023-05-07T04:18:00;4.7;4.7;
78678;PMS5003;67994;59.334;13.528;2023-05-07T04:19:00;2.0;2.0;
78678;PMS5003;67994;59.334;13.528;2023-05-07T04:20:00;2.0;2.0;
78678;PMS5003;67994;59.334;13.528;2023-05-07T04:21:00;2.0;2.0;
78678;PMS5003;67994;59.334;13.528;2023-05-07T04:22:00;2.0;2.0;
78678;PMS5003;67994;59.334;13.528;2023-05-07T04:23:00;2.0;2.0;
78678;PMS5003;67994;59.334;13.528;2023-05-07T04:24:00;2.9;2.8;
78678;PMS5003;67994;59.334;13.528;2023-05-07T04:25:00;2.9;2.8;
78678;PMS5003;67994;59.334;13.528;2023-05-07T04:26:00;2.9;2.8;
78678;PMS5003;67994;59.334;13.528;2023-05-07T04:27:00;2.9;2.8;
78678;PMS5003;67994;59.334;13.528;2023-05-07T04:28:00;2.9;2.8;
78678;PMS5003;67994;59.334;13.528;2023-05-07T04:29:00;5.6;4.3;
78678;PMS5003;67994;59.334;13.528;2023-05-07T04:30:00;5.6;4.3;
78678;PMS5003;67994;59.334;13.528;2023-05-07T04:31:00;5.6;4.3;
78678;PMS5003;67994;59.334;13.528;2023-05-07T04:32:00;5.6;4.3;
78678;PMS5003;67994;59.334;13.528;2023-05-07T04:33:00;5.6;4.3;
78678;PMS5003;67994;59.334;13.528;2023-05-07T04:34:00;3.4;3.4;
78678;PMS5003;67994;59.334;13.528;2023-05-07T04:35:00;3.4;3.4;
78678;PMS5003;67994;59.334;13.528;2023-05-07T04:36:01;3.4;3.4;
78678;PMS5003;67994;59.334;13.528;2023-05-07T04:37:00;3.4;3.4;
78678;PMS5003;67994;59.334;13.528;2023-05-07T04:38:00;3.4;3.4;
78678;PMS5003;67994;59.334;13.528;2023-05-07T04:39:00;3.7;3.7;
78678;PMS5003;67994;59.334;13.528;2023-05-07T04:40:00;3.7;3.7;
78678;PMS5003;67994;59.334;13.528;2023-05-07T04:41:02;3.7;3.7;
78678;PMS5003;67994;59.334;13.528;2023-05-07T04:42:00;3.7;3.7;
78678;PMS5003;67994;59.334;13.528;2023-05-07T04:43:00;3.7;3.7;
78678;PMS5003;67994;59.334;13.528;2023-05-07T04:44:00;2.0;2.0;
78678;PMS5003;67994;59.334;13.528;2023-05-07T04:45:01;2.0;2.0;
78678;PMS5003;67994;59.334;13.528;2023-05-07T04:46:00;2.0;2.0;
78678;PMS5003;67994;59.334;13.528;2023-05-07T04:47:00;2.0;2.0;
78678;PMS5003;67994;59.334;13.528;2023-05-07T04:48:00;2.0;2.0;
78678;PMS5003;67994;59.334;13.528;2023-05-07T04:49:00;3.8;3.8;
78678;PMS5003;67994;59.334;13.528;2023-05-07T04:50:00;3.8;3.8;
78678;PMS5003;67994;59.334;13.528;2023-05-07T04:51:00;3.8;3.8;
78678;PMS5003;67994;59.334;13.528;2023-05-07T04:52:00;3.8;3.8;
78678;PMS5003;67994;59.334;13.528;2023-05-07T04:53:00;3.8;3.8;
78678;PMS5003;67994;59.334;13.528;2023-05-07T04:54:00;2.7;2.7;
78678;PMS5003;67994;59.334;13.528;2023-05-07T04:55:00;2.7;2.7;
78678;PMS5003;67994;59.334;13.528;2023-05-07T04:56:00;2.7;2.7;
78678;PMS5003;67994;59.334;13.528;2023-05-07T04:57:00;2.7;2.7;
78678;PMS5003;67994;59.334;13.528;2023-05-07T04:58:00;2.7;2.7;
78678;PMS5003;67994;59.334;13.528;2023-05-07T04:59:00;3.7;3.7;
78678;PMS5003;67994;59.334;13.528;2023-05-07T05:00:00;3.7;3.7;
78678;PMS5003;67994;59.334;13.528;2023-05-07T05:01:00;3.7;3.7;
78678;PMS5003;67994;59.334;13.528;2023-05-07T05:02:00;3.7;3.7;
78678;PMS5003;67994;59.334;13.528;2023-05-07T05:03:00;3.7;3.7;
78678;PMS5003;67994;59.334;13.528;2023-05-07T05:04:00;2.5;2.5;
78678;PMS5003;67994;59.334;13.528;2023-05-07T05:05:00;2.5;2.5;
78678;PMS5003;67994;59.334;13.528;2023-05-07T05:06:00;2.5;2.5;
78678;PMS5003;67994;59.334;13.528;2023-05-07T05:07:00;2.5;2.5;
78678;PMS5003;67994;59.334;13.528;2023-05-07T05:08:00;2.5;2.5;
78678;PMS5003;67994;59.334;13.528;2023-05-07T05:09:00;4.4;2.5;
78678;PMS5003;67994;59.334;13.528;2023-05-07T05:10:01;4.4;2.5;
78678;PMS5003;67994;59.334;13.528;2023-05-07T05:11:00;4.4;2.5;
78678;PMS5003;67994;59.334;13.528;2023-05-07T05:12:00;4.4;2.5;
78678;PMS5003;67994;59.334;13.528;2023-05-07T05:13:00;4.4;2.5;
78678;PMS5003;67994;59.334;13.528;2023-05-07T05:14:00;3.4;3.4;
78678;PMS5003;67994;59.334;13.528;2023-05-07T05:15:00;3.4;3.4;
78678;PMS5003;67994;59.334;13.528;2023-05-07T05:16:00;3.4;3.4;
78678;PMS5003;67994;59.334;13.528;2023-05-07T05:17:00;3.4;3.4;
78678;PMS5003;67994;59.334;13.528;2023-05-07T05:18:00;3.4;3.4;
78678;PMS5003;67994;59.334;13.528;2023-05-07T05:19:01;1.7;1.7;
78678;PMS5003;67994;59.334;13.528;2023-05-07T05:20:00;1.7;1.7;
78678;PMS5003;67994;59.334;13.528;2023-05-07T05:21:00;1.7;1.7;
78678;PMS5003;67994;59.334;13.528;2023-05-07T05:22:00;1.7;1.7;
78678;PMS5003;67994;59.334;13.528;2023-05-07T05:23:00;1.7;1.7;
78678;PMS5003;67994;59.334;13.528;2023-05-07T05:24:00;2.0;2.0;
78678;PMS5003;67994;59.334;13.528;2023-05-07T05:25:00;2.0;2.0;
78678;PMS5003;67994;59.334;13.528;2023-05-07T05:26:00;2.0;2.0;
78678;PMS5003;67994;59.334;13.528;2023-05-07T05:27:00;2.0;2.0;
78678;PMS5003;67994;59.334;13.528;2023-05-07T05:28:00;2.0;2.0;
78678;PMS5003;67994;59.334;13.528;2023-05-07T05:29:00;3.4;2.0;
78678;PMS5003;67994;59.334;13.528;2023-05-07T05:30:00;3.4;2.0;
78678;PMS5003;67994;59.334;13.528;2023-05-07T05:31:00;3.4;2.0;
78678;PMS5003;67994;59.334;13.528;2023-05-07T05:32:00;3.4;2.0;
78678;PMS5003;67994;59.334;13.528;2023-05-07T05:33:00;3.4;2.0;
78678;PMS5003;67994;59.334;13.528;2023-05-07T05:34:00;4.3;3.7;
78678;PMS5003;67994;59.334;13.528;2023-05-07T05:35:00;4.3;3.7;
78678;PMS5003;67994;59.334;13.528;2023-05-07T05:36:00;4.3;3.7;
78678;PMS5003;67994;59.334;13.528;2023-05-07T05:37:00;4.3;3.7;
78678;PMS5003;67994;59.334;13.528;2023-05-07T05:38:00;4.3;3.7;
78678;PMS5003;67994;59.334;13.528;2023-05-07T05:39:00;3.4;3.4;
78678;PMS5003;67994;59.334;13.528;2023-05-07T05:40:00;3.4;3.4;
78678;PMS5003;67994;59.334;13.528;2023-05-07T05:41:00;3.4;3.4;
78678;PMS5003;67994;59.334;13.528;2023-05-07T05:42:00;3.4;3.4;
78678;PMS5003;67994;59.334;13.528;2023-05-07T05:43:00;3.4;3.4;
78678;PMS5003;67994;59.334;13.528;2023-05-07T05:44:00;5.0;3.0;
78678;PMS5003;67994;59.334;13.528;2023-05-07T05:45:00;5.0;3.0;
78678;PMS5003;67994;59.334;13.528;2023-05-07T05:46:00;5.0;3.0;
78678;PMS5003;67994;59.334;13.528;2023-05-07T05:47:00;5.0;3.0;
78678;PMS5003;67994;59.334;13.528;2023-05-07T05:48:00;5.0;3.0;
78678;PMS5003;67994;59.334;13.528;2023-05-07T05:49:00;4.0;3.7;
78678;PMS5003;67994;59.334;13.528;2023-05-07T05:50:00;4.0;3.7;
78678;PMS5003;67994;59.334;13.528;2023-05-07T05:51:00;4.0;3.7;
78678;PMS5003;67994;59.334;13.528;2023-05-07T05:52:00;4.0;3.7;
78678;PMS5003;67994;59.334;13.528;2023-05-07T05:53:00;4.0;3.7;
78678;PMS5003;67994;59.334;13.528;2023-05-07T05:54:00;2.0;2.0;
78678;PMS5003;67994;59.334;13.528;2023-05-07T05:55:00;2.0;2.0;
78678;PMS5003;67994;59.334;13.528;2023-05-07T05:56:00;2.0;2.0;
78678;PMS5003;67994;59.334;13.528;2023-05-07T05:57:00;2.0;2.0;
78678;PMS5003;67994;59.334;13.528;2023-05-07T05:58:01;2.0;2.0;
78678;PMS5003;67994;59.334;13.528;2023-05-07T05:59:00;2.6;2.6;
78678;PMS5003;67994;59.334;13.528;2023-05-07T06:00:00;2.6;2.6;
78678;PMS5003;67994;59.334;13.528;2023-05-07T06:01:00;2.6;2.6;
78678;PMS5003;67994;59.334;13.528;2023-05-07T06:02:00;2.6;2.6;
78678;PMS5003;67994;59.334;13.528;2023-05-07T06:03:00;2.6;2.6;
78678;PMS5003;67994;59.334;13.528;2023-05-07T06:04:00;1.7;1.0;
78678;PMS5003;67994;59.334;13.528;2023-05-07T06:05:00;1.7;1.0;
78678;PMS5003;67994;59.334;13.528;2023-05-07T06:06:00;1.7;1.0;
78678;PMS5003;67994;59.334;13.528;2023-05-07T06:07:00;1.7;1.0;
78678;PMS5003;67994;59.334;13.528;2023-05-07T06:08:00;1.7;1.0;
78678;PMS5003;67994;59.334;13.528;2023-05-07T06:09:00;3.6;2.0;
78678;PMS5003;67994;59.334;13.528;2023-05-07T06:10:00;3.6;2.0;
78678;PMS5003;67994;59.334;13.528;2023-05-07T06:11:01;3.6;2.0;
78678;PMS5003;67994;59.334;13.528;2023-05-07T06:12:00;3.6;2.0;
78678;PMS5003;67994;59.334;13.528;2023-05-07T06:13:00;3.6;2.0;
78678;PMS5003;67994;59.334;13.528;2023-05-07T06:14:00;2.4;2.4;
78678;PMS5003;67994;59.334;13.528;2023-05-07T06:15:00;2.4;2.4;
78678;PMS5003;67994;59.334;13.528;2023-05-07T06:16:00;2.4;2.4;
78678;PMS5003;67994;59.334;13.528;2023-05-07T06:17:00;2.4;2.4;
78678;PMS5003;67994;59.334;13.528;2023-05-07T06:18:00;2.4;2.4;
78678;PMS5003;67994;59.334;13.528;2023-05-07T06:19:00;2.0;1.0;